Time;durP1;ratioP1;P1;durP2;ratioP2;P2;SDS_P1;SDS_P2;PMS_P1;PMS_P2;Temp;Humidity;BMP_temperature;BMP_pressure;BME280_temperature;BME280_humidity;BME280_pressure;Samples;Min_cycle;Max_cycle;Signal;HPM_P1;HPM_P2
2023/04/26 19:44:54;;;;;;;32.00;10.30;;;;;;;5.43;48.96;99013.61;102284;1295;636069;-72
2023/04/26 19:47:22;;;;;;;26.90;9.30;;;;;;;5.39;49.00;99014.05;104864;1266;94389;-72
2023/04/26 19:49:51;;;;;;;22.60;7.90;;;;;;;5.35;49.04;99019.83;104324;1269;94977;-72
2023/04/26 19:52:19;;;;;;;24.20;9.00;;;;;;;5.33;49.04;99019.95;104760;1269;106900;-73
2023/04/26 19:54:47;;;;;;;23.40;8.70;;;;;;;5.28;48.93;99019.69;104767;1270;100160;-75
2023/04/26 19:57:16;;;;;;;28.90;10.50;;;;;;;5.23;49.08;99018.20;105548;1269;106816;-81
2023/04/26 19:59:44;;;;;;;27.80;9.80;;;;;;;5.17;49.21;99020.21;104402;1270;161859;-71
2023/04/26 20:02:12;;;;;;;20.90;7.20;;;;;;;5.12;49.03;99018.37;104815;1267;94318;-71
2023/04/26 20:04:40;;;;;;;21.30;6.60;;;;;;;5.07;49.16;99026.00;104669;1263;105140;-79
2023/04/26 20:07:08;;;;;;;21.00;7.10;;;;;;;5.02;49.13;99027.66;104774;1263;100959;-71
2023/04/26 20:09:36;;;;;;;25.20;9.30;;;;;;;4.99;49.43;99028.19;108046;1263;107623;-72
2023/04/26 20:12:05;;;;;;;21.10;6.90;;;;;;;4.96;49.25;99028.49;105473;1267;95236;-72
2023/04/26 20:17:20;;;;;;;24.50;8.80;;;;;;;4.93;49.40;99029.17;104879;1263;108590;-73
2023/04/26 20:19:48;;;;;;;21.70;7.10;;;;;;;4.92;49.48;99029.03;105077;1263;100770;-73
2023/04/26 20:22:16;;;;;;;23.50;7.60;;;;;;;4.94;49.60;99029.84;104658;1270;107913;-72
2023/04/26 20:24:44;;;;;;;22.20;7.80;;;;;;;4.96;49.48;99032.38;104625;1263;95243;-72
2023/04/26 20:27:13;;;;;;;23.60;8.60;;;;;;;4.99;49.65;99035.23;104892;1262;95868;-72
2023/04/26 20:29:41;;;;;;;25.40;9.30;;;;;;;5.02;49.54;99041.01;104823;1263;108739;-73
2023/04/26 20:32:08;;;;;;;24.60;8.20;;;;;;;5.05;49.73;99041.75;104854;1273;100875;-73
2023/04/26 20:34:36;;;;;;;29.10;10.10;;;;;;;5.09;49.90;99037.57;105214;1260;107722;-71
2023/04/26 20:37:04;;;;;;;24.10;9.90;;;;;;;5.10;49.79;99039.90;105073;1257;95256;-73
2023/04/26 20:39:33;;;;;;;25.90;10.30;;;;;;;5.13;50.16;99040.13;105216;1259;95185;-73
2023/04/26 20:42:02;;;;;;;25.90;11.40;;;;;;;5.14;49.92;99039.36;108384;1256;107774;-73
2023/04/26 20:44:30;;;;;;;26.20;10.80;;;;;;;5.17;50.10;99038.00;108363;1257;99402;-74
2023/04/26 20:46:58;;;;;;;26.90;11.60;;;;;;;5.19;50.03;99035.10;108394;1257;107612;-73
2023/04/26 20:49:27;;;;;;;34.00;12.40;;;;;;;5.21;49.97;99037.10;108167;1257;95164;-72
2023/04/26 20:51:55;;;;;;;33.10;13.70;;;;;;;5.25;50.10;99034.45;105299;1259;95211;-71
2023/04/26 20:54:23;;;;;;;32.90;13.50;;;;;;;5.29;50.29;99041.46;108475;1256;108138;-73
2023/04/26 20:56:51;;;;;;;30.30;12.20;;;;;;;5.30;50.12;99037.85;105734;1256;100490;-82
2023/04/26 20:59:19;;;;;;;30.60;11.60;;;;;;;5.32;50.28;99041.09;105110;1261;108384;-72
2023/04/26 21:01:47;;;;;;;28.10;11.50;;;;;;;5.35;50.56;99045.34;105110;1260;95259;-74
2023/04/26 21:04:15;;;;;;;32.90;13.50;;;;;;;5.37;50.28;99044.38;105140;1260;95537;-82
2023/04/26 21:06:43;;;;;;;29.10;12.60;;;;;;;5.35;50.44;99043.91;104914;1262;108555;-72
2023/04/26 21:09:12;;;;;;;30.90;13.90;;;;;;;5.37;50.31;99047.00;105025;1257;100877;-72
2023/04/26 21:11:41;;;;;;;27.60;12.10;;;;;;;5.37;50.34;99048.92;105048;1260;107682;-72
2023/04/26 21:14:09;;;;;;;28.90;12.40;;;;;;;5.37;50.51;99052.46;104939;1260;95592;-72
2023/04/26 21:16:36;;;;;;;30.90;12.00;;;;;;;5.38;50.50;99058.05;104867;1260;95822;-72
2023/04/26 21:19:04;;;;;;;28.60;11.70;;;;;;;5.37;50.64;99061.39;105144;1260;108230;-72
2023/04/26 21:21:32;;;;;;;26.90;12.10;;;;;;;5.38;50.68;99064.20;105116;1271;100830;-72
2023/04/26 21:24:02;;;;;;;32.80;14.30;;;;;;;5.39;50.76;99063.29;105057;1260;107226;-79
2023/04/26 21:26:30;;;;;;;27.70;12.50;;;;;;;5.39;50.79;99063.11;104974;1261;95616;-73
2023/04/26 21:28:58;;;;;;;34.40;14.00;;;;;;;5.40;50.86;99066.19;105005;1256;96187;-71
2023/04/26 21:31:25;;;;;;;34.60;14.60;;;;;;;5.40;50.81;99067.76;105105;1260;108287;-73
2023/04/26 21:33:53;;;;;;;35.90;14.80;;;;;;;5.41;51.00;99074.43;105063;1260;101070;-72
2023/04/26 21:36:21;;;;;;;28.70;13.30;;;;;;;5.41;51.23;99072.16;104996;1259;107444;-71
2023/04/26 21:38:50;;;;;;;34.30;13.50;;;;;;;5.40;50.98;99071.31;104784;1263;96328;-72
2023/04/26 21:41:18;;;;;;;32.90;13.00;;;;;;;5.40;51.00;99071.28;105046;1258;96055;-72
2023/04/26 21:43:46;;;;;;;31.80;12.80;;;;;;;5.41;51.05;99073.16;104900;1259;107976;-73
2023/04/26 21:46:14;;;;;;;29.90;12.60;;;;;;;5.41;51.03;99076.48;104990;1259;100588;-73
2023/04/26 21:48:43;;;;;;;31.70;13.30;;;;;;;5.41;51.18;99077.55;104914;1263;106251;-72
2023/04/26 21:51:10;;;;;;;31.80;13.40;;;;;;;5.42;51.47;99079.45;104947;1262;95419;-76
2023/04/26 21:53:39;;;;;;;30.90;13.40;;;;;;;5.43;51.34;99080.27;104724;1262;96574;-71
2023/04/26 21:56:08;;;;;;;31.80;14.00;;;;;;;5.45;51.22;99083.89;104909;1261;107974;-73
2023/04/26 21:58:36;;;;;;;30.40;12.60;;;;;;;5.44;51.30;99087.77;104881;1263;100680;-71
2023/04/26 22:01:13;;;;;;;29.30;12.50;;;;;;;5.43;51.48;99090.49;104946;1262;105791;-71
2023/04/26 22:03:41;;;;;;;30.50;13.90;;;;;;;5.44;51.49;99091.31;104871;1263;95272;-71
2023/04/26 22:06:10;;;;;;;32.10;13.10;;;;;;;5.43;51.36;99092.77;104970;1258;95666;-72
2023/04/26 22:08:38;;;;;;;31.40;13.30;;;;;;;5.42;51.61;99093.16;104836;1261;108037;-76
2023/04/26 22:11:06;;;;;;;34.70;14.30;;;;;;;5.42;51.39;99095.81;104724;1260;100518;-72
2023/04/26 22:13:34;;;;;;;32.80;12.80;;;;;;;5.41;51.55;99099.91;104932;1257;108108;-72
2023/04/26 22:16:02;;;;;;;33.30;13.90;;;;;;;5.41;51.59;99103.26;104873;1260;95285;-72
2023/04/26 22:18:31;;;;;;;31.60;14.10;;;;;;;5.41;51.66;99101.70;105023;1260;96893;-80
2023/04/26 22:20:59;;;;;;;29.90;12.40;;;;;;;5.41;51.73;99100.96;104891;1256;107718;-72
2023/04/26 22:23:27;;;;;;;30.40;12.30;;;;;;;5.40;51.71;99102.25;105302;1258;100867;-72
2023/04/26 22:25:57;;;;;;;29.80;12.40;;;;;;;5.41;51.86;99106.28;105045;1259;107658;-73
2023/04/26 22:28:25;;;;;;;31.10;12.00;;;;;;;5.38;51.83;99103.21;105400;1253;95313;-72
2023/04/26 22:30:53;;;;;;;27.70;12.10;;;;;;;5.36;51.67;99106.64;105291;1257;95683;-72
2023/04/26 22:33:21;;;;;;;30.70;11.70;;;;;;;5.37;51.90;99104.88;105101;1257;108137;-71
2023/04/26 22:35:49;;;;;;;29.60;13.00;;;;;;;5.37;51.90;99104.14;104995;1254;100873;-72
2023/04/26 22:38:17;;;;;;;28.50;13.10;;;;;;;5.37;51.99;99107.13;105208;1254;107634;-72
2023/04/26 22:40:45;;;;;;;31.10;12.40;;;;;;;5.36;51.89;99109.31;105223;1259;95869;-72
2023/04/26 22:43:13;;;;;;;27.30;11.50;;;;;;;5.35;51.94;99111.83;105259;1256;95753;-72
2023/04/26 22:45:41;;;;;;;27.10;11.90;;;;;;;5.33;51.96;99105.20;105467;1254;108567;-72
2023/04/26 22:48:09;;;;;;;30.40;12.20;;;;;;;5.33;52.05;99107.66;105277;1257;99713;-71
2023/04/26 22:50:37;;;;;;;32.30;12.40;;;;;;;5.33;51.90;99105.94;105027;1257;107140;-72
2023/04/26 22:53:05;;;;;;;30.70;10.90;;;;;;;5.33;52.21;99105.02;105251;1256;95322;-73
2023/04/26 22:55:33;;;;;;;25.50;12.10;;;;;;;5.33;52.27;99104.50;105316;1257;95411;-72
2023/04/26 22:58:01;;;;;;;28.50;12.30;;;;;;;5.35;52.33;99110.23;105068;1258;109258;-72
2023/04/26 23:00:29;;;;;;;30.30;11.30;;;;;;;5.34;52.22;99109.59;105341;1260;98954;-74
2023/04/26 23:02:57;;;;;;;30.00;11.80;;;;;;;5.34;52.35;99109.92;105245;1259;107942;-72
2023/04/26 23:05:25;;;;;;;27.60;10.60;;;;;;;5.37;52.49;99114.54;105267;1259;96265;-72
2023/04/26 23:07:53;;;;;;;29.90;11.90;;;;;;;5.36;52.46;99116.34;105281;1256;95301;-72
2023/04/26 23:10:21;;;;;;;31.00;11.00;;;;;;;5.35;52.53;99116.18;105300;1256;108061;-72
2023/04/26 23:12:49;;;;;;;30.70;12.60;;;;;;;5.34;52.44;99116.93;105275;1260;100872;-72
2023/04/26 23:15:17;;;;;;;29.90;11.70;;;;;;;5.35;52.59;99117.27;105252;1257;107237;-71
2023/04/26 23:17:45;;;;;;;28.10;10.70;;;;;;;5.36;52.71;99119.66;104982;1254;95250;-72
2023/04/26 23:20:14;;;;;;;27.40;11.00;;;;;;;5.36;52.63;99120.71;105229;1254;95733;-71
2023/04/26 23:22:42;;;;;;;31.30;12.50;;;;;;;5.35;52.62;99120.05;105210;1257;108503;-73
2023/04/26 23:25:10;;;;;;;28.60;11.00;;;;;;;5.37;52.77;99119.08;105068;1257;100834;-72
2023/04/26 23:27:38;;;;;;;28.40;11.50;;;;;;;5.37;52.72;99115.23;105227;1254;106126;-72
2023/04/26 23:30:06;;;;;;;31.90;10.90;;;;;;;5.38;52.83;99119.60;105027;1259;95339;-71
2023/04/26 23:32:34;;;;;;;27.80;12.30;;;;;;;5.37;52.86;99117.16;105154;1256;95731;-72
2023/04/26 23:35:03;;;;;;;25.60;11.10;;;;;;;5.34;52.88;99120.27;105244;1256;108526;-72
2023/04/26 23:37:31;;;;;;;27.10;10.50;;;;;;;5.33;52.92;99123.48;105225;1257;100917;-72
2023/04/26 23:39:59;;;;;;;30.10;13.10;;;;;;;5.31;52.86;99122.90;105049;1257;107639;-75
2023/04/26 23:42:27;;;;;;;26.40;10.80;;;;;;;5.29;53.00;99124.45;105050;1256;95234;-72
2023/04/26 23:44:56;;;;;;;26.80;11.20;;;;;;;5.27;52.99;99125.95;105598;1257;95567;-72
2023/04/26 23:47:23;;;;;;;25.50;10.40;;;;;;;5.24;52.93;99124.66;105172;1257;108252;-72
2023/04/26 23:49:51;;;;;;;28.60;10.90;;;;;;;5.20;53.04;99124.17;105415;1256;100878;-72
2023/04/26 23:52:19;;;;;;;30.10;11.90;;;;;;;5.18;53.10;99123.91;105399;1274;107369;-71
2023/04/26 23:54:47;;;;;;;28.40;12.20;;;;;;;5.17;53.07;99126.41;105341;1251;96670;-72
2023/04/26 23:57:16;;;;;;;28.30;10.40;;;;;;;5.17;53.06;99123.41;105337;1251;97086;-82
2023/04/26 23:59:43;;;;;;;27.60;11.20;;;;;;;5.19;53.15;99126.69;105417;1257;109938;-72
